Time;durP1;ratioP1;P1;durP2;ratioP2;P2;SDS_P1;SDS_P2;PMS_P1;PMS_P2;Temp;Humidity;BMP_temperature;BMP_pressure;BME280_temperature;BME280_humidity;BME280_pressure;Samples;Min_cycle;Max_cycle;Signal;HPM_P1;HPM_P2
2022/05/12 00:02:18;;;;;;;6.50;3.42;;;6.80;99.90;;;;;;5227662;28;20124;-67
2022/05/12 00:04:49;;;;;;;6.90;3.35;;;6.80;99.90;;;;;;5227671;28;20029;-67
2022/05/12 00:07:20;;;;;;;10.68;4.57;;;7.00;99.90;;;;;;5227546;28;20342;-67
2022/05/12 00:09:51;;;;;;;10.45;4.05;;;6.70;99.90;;;;;;5227585;28;20104;-67
2022/05/12 00:12:23;;;;;;;8.85;4.55;;;6.80;99.90;;;;;;5227339;28;20037;-67
2022/05/12 00:14:54;;;;;;;10.98;6.50;;;6.70;99.90;;;;;;5227541;28;20041;-66
2022/05/12 00:17:25;;;;;;;14.10;5.93;;;6.40;99.90;;;;;;5227453;28;20029;-66
2022/05/12 00:19:56;;;;;;;10.75;5.65;;;6.80;99.90;;;;;;5227414;28;20096;-76
2022/05/12 00:22:27;;;;;;;11.07;5.72;;;6.60;99.90;;;;;;5227412;28;20029;-76
2022/05/12 00:24:57;;;;;;;12.95;5.43;;;6.90;99.90;;;;;;5227293;28;20083;-66
2022/05/12 00:27:28;;;;;;;12.93;5.97;;;6.50;99.90;;;;;;5229394;28;20400;-66
2022/05/12 00:29:59;;;;;;;11.80;6.35;;;6.50;99.90;;;;;;5231859;28;20033;-67
2022/05/12 00:32:30;;;;;;;10.82;5.15;;;6.20;99.90;;;;;;5231637;28;20025;-67
2022/05/12 00:35:01;;;;;;;11.93;5.45;;;6.20;99.90;;;;;;5231580;28;20484;-66
2022/05/12 00:37:32;;;;;;;13.18;5.82;;;6.50;99.90;;;;;;5231430;28;20079;-67
2022/05/12 00:40:03;;;;;;;10.88;5.93;;;6.60;99.90;;;;;;5231594;28;20025;-67
2022/05/12 00:42:34;;;;;;;12.43;6.22;;;6.10;99.90;;;;;;5231049;28;20064;-67
2022/05/12 00:45:06;;;;;;;10.50;5.18;;;6.40;99.90;;;;;;5231528;28;20029;-67
2022/05/12 00:47:36;;;;;;;11.20;5.93;;;6.30;99.90;;;;;;5231395;28;20393;-67
2022/05/12 00:50:08;;;;;;;11.95;6.28;;;6.40;99.90;;;;;;5231460;28;20064;-67
2022/05/12 00:52:40;;;;;;;15.07;6.20;;;6.50;99.90;;;;;;5231249;28;20036;-66
2022/05/12 00:55:30;;;;;;;12.48;6.55;;;6.40;99.90;;;;;;5231172;28;20086;-74
2022/05/12 00:58:06;;;;;;;13.40;6.43;;;6.20;99.90;;;;;;5231311;28;20396;-75
2022/05/12 01:00:37;;;;;;;12.90;6.45;;;6.30;99.90;;;;;;5231321;28;20025;-75
2022/05/12 01:03:24;;;;;;;18.42;7.32;;;6.30;99.90;;;;;;5231239;28;20025;-76
2022/05/12 01:05:55;;;;;;;11.07;6.15;;;6.40;99.90;;;;;;5231141;28;20075;-66
2022/05/12 01:08:26;;;;;;;15.15;6.32;;;6.10;99.90;;;;;;5231120;28;20468;-67
2022/05/12 01:11:03;;;;;;;9.43;5.60;;;6.50;99.90;;;;;;5230897;28;20037;-76
2022/05/12 01:13:34;;;;;;;13.52;6.72;;;6.00;99.90;;;;;;5231186;28;20587;-75
2022/05/12 01:16:05;;;;;;;10.95;6.13;;;6.00;99.90;;;;;;5230851;28;20497;-68
2022/05/12 01:18:40;;;;;;;16.80;6.60;;;6.20;99.90;;;;;;5230896;28;20036;-67
2022/05/12 01:21:12;;;;;;;16.15;6.32;;;6.50;99.90;;;;;;5230675;28;20024;-67
2022/05/12 01:23:43;;;;;;;13.63;6.53;;;6.10;99.90;;;;;;5230742;28;20361;-66
2022/05/12 01:26:13;;;;;;;14.43;6.50;;;6.00;99.90;;;;;;5230625;28;20078;-67
2022/05/12 01:28:44;;;;;;;14.77;6.53;;;6.40;99.90;;;;;;5230540;28;20495;-67
2022/05/12 01:31:19;;;;;;;10.40;5.88;;;6.00;99.90;;;;;;5230565;28;20036;-67
2022/05/12 01:33:51;;;;;;;12.15;5.57;;;6.40;99.90;;;;;;5230528;28;20533;-67
2022/05/12 01:36:22;;;;;;;11.80;6.15;;;6.50;99.90;;;;;;5230451;28;20037;-76
2022/05/12 01:38:52;;;;;;;13.55;6.22;;;6.00;99.90;;;;;;5229817;28;20024;-66
2022/05/12 01:41:23;;;;;;;21.00;6.68;;;6.20;99.90;;;;;;5230082;28;20025;-66
2022/05/12 01:43:54;;;;;;;10.98;5.30;;;6.20;99.90;;;;;;5230482;28;20148;-70
2022/05/12 01:46:26;;;;;;;15.98;6.40;;;6.60;99.90;;;;;;5230117;28;20029;-67
2022/05/12 01:48:56;;;;;;;12.93;6.10;;;6.40;99.90;;;;;;5230239;28;20063;-67
2022/05/12 01:51:28;;;;;;;12.00;6.88;;;6.20;99.90;;;;;;5230393;28;20048;-75
2022/05/12 01:53:59;;;;;;;12.18;6.32;;;6.50;99.90;;;;;;5230245;28;20013;-67
2022/05/12 01:56:30;;;;;;;13.05;5.78;;;6.50;99.90;;;;;;5229941;28;20029;-66
2022/05/12 01:59:01;;;;;;;10.88;5.95;;;6.30;99.90;;;;;;5229961;28;20104;-66
2022/05/12 02:01:31;;;;;;;12.90;5.70;;;6.10;99.90;;;;;;5230097;28;20104;-66
2022/05/12 02:04:02;;;;;;;16.10;5.88;;;6.50;99.90;;;;;;5229810;28;20036;-66
2022/05/12 02:06:34;;;;;;;10.35;5.05;;;6.40;99.90;;;;;;5229913;28;20025;-67
2022/05/12 02:09:06;;;;;;;13.00;6.07;;;6.60;99.90;;;;;;5229744;28;20465;-76
2022/05/12 02:11:38;;;;;;;11.80;5.57;;;6.70;99.90;;;;;;5229555;28;20120;-67
2022/05/12 02:14:09;;;;;;;12.93;5.68;;;6.60;99.90;;;;;;5229790;28;20033;-66
2022/05/12 02:16:40;;;;;;;13.30;5.13;;;6.50;99.90;;;;;;5229766;28;20032;-66
2022/05/12 02:19:11;;;;;;;12.18;5.78;;;6.60;99.90;;;;;;5229680;28;20532;-67
2022/05/12 02:21:42;;;;;;;10.68;5.75;;;6.60;99.90;;;;;;5229528;28;20109;-67
2022/05/12 02:24:13;;;;;;;12.82;5.30;;;6.60;99.90;;;;;;5229600;28;20028;-67
2022/05/12 02:26:43;;;;;;;11.23;5.65;;;6.30;99.90;;;;;;5229382;28;20025;-76
2022/05/12 02:29:14;;;;;;;11.38;5.97;;;6.50;99.90;;;;;;5229488;28;20412;-66
2022/05/12 02:31:45;;;;;;;11.48;5.47;;;6.40;99.90;;;;;;5229408;28;20032;-66
2022/05/12 02:34:17;;;;;;;11.35;5.43;;;6.40;99.90;;;;;;5229279;28;20079;-67
2022/05/12 02:36:59;;;;;;;13.55;6.57;;;6.70;99.90;;;;;;5229180;28;20086;-67
2022/05/12 02:39:37;;;;;;;12.38;5.75;;;6.40;99.90;;;;;;5229178;28;20033;-67
2022/05/12 02:42:10;;;;;;;13.27;5.85;;;6.30;99.90;;;;;;5228938;28;20053;-74
2022/05/12 02:44:41;;;;;;;11.63;5.82;;;6.10;99.90;;;;;;5229171;28;20411;-66
2022/05/12 02:47:12;;;;;;;9.70;5.65;;;6.20;99.90;;;;;;5229034;28;20017;-66
2022/05/12 02:49:42;;;;;;;10.95;6.22;;;6.30;99.90;;;;;;5228139;28;20356;-66
2022/05/12 02:52:13;;;;;;;10.65;6.00;;;6.20;99.90;;;;;;5229329;28;20020;-67
2022/05/12 02:54:44;;;;;;;15.45;6.55;;;6.30;99.90;;;;;;5228892;28;20037;-66
2022/05/12 02:57:15;;;;;;;13.02;6.32;;;6.50;99.90;;;;;;5228833;28;20064;-66
2022/05/12 02:59:46;;;;;;;13.10;6.20;;;6.30;99.90;;;;;;5228697;28;20422;-66
2022/05/12 03:02:16;;;;;;;13.52;6.30;;;6.50;99.90;;;;;;5228766;28;20025;-66
2022/05/12 03:04:47;;;;;;;13.30;6.05;;;6.60;99.90;;;;;;5228565;28;20065;-66
2022/05/12 03:07:18;;;;;;;11.13;6.22;;;6.40;99.90;;;;;;5228737;28;20060;-66
2022/05/12 03:09:49;;;;;;;17.27;7.25;;;6.40;99.90;;;;;;5228562;28;20033;-67
2022/05/12 03:12:19;;;;;;;12.27;6.18;;;6.80;99.90;;;;;;5228596;28;20024;-66
2022/05/12 03:14:50;;;;;;;14.27;6.70;;;6.50;99.90;;;;;;5228671;28;20481;-67
2022/05/12 03:17:21;;;;;;;14.50;6.38;;;6.80;99.90;;;;;;5228497;28;20041;-67
2022/05/12 03:19:52;;;;;;;12.00;6.07;;;6.60;99.90;;;;;;5228303;28;20036;-67
2022/05/12 03:22:23;;;;;;;12.80;6.55;;;6.60;99.90;;;;;;5228313;28;20545;-67
2022/05/12 03:24:54;;;;;;;13.40;6.50;;;6.50;99.90;;;;;;5228315;28;20356;-67
2022/05/12 03:27:25;;;;;;;11.90;6.70;;;6.60;99.90;;;;;;5228332;28;20016;-67
2022/05/12 03:29:56;;;;;;;12.05;6.45;;;6.60;99.90;;;;;;5228179;28;20029;-67
2022/05/12 03:32:27;;;;;;;13.98;6.85;;;6.70;99.90;;;;;;5228635;28;20016;-67
2022/05/12 03:34:58;;;;;;;12.30;6.38;;;6.70;99.90;;;;;;5228025;28;20033;-66
2022/05/12 03:37:29;;;;;;;11.02;6.10;;;6.80;99.90;;;;;;5228100;28;20032;-67
2022/05/12 03:40:00;;;;;;;13.38;6.40;;;7.00;99.90;;;;;;5228071;28;20028;-67
2022/05/12 03:42:31;;;;;;;13.52;5.80;;;7.10;99.90;;;;;;5227648;28;20048;-67
2022/05/12 03:45:02;;;;;;;15.98;7.22;;;7.10;99.90;;;;;;5228081;28;20032;-66
2022/05/12 03:47:34;;;;;;;12.73;6.45;;;7.40;99.90;;;;;;5226747;28;20024;-67
2022/05/12 03:50:11;;;;;;;15.65;6.95;;;7.30;99.90;;;;;;5227822;28;20057;-67
2022/05/12 03:52:42;;;;;;;14.75;6.60;;;7.40;99.90;;;;;;5227812;28;20480;-67
2022/05/12 03:55:16;;;;;;;13.27;5.88;;;7.30;99.90;;;;;;5227515;28;20039;-67
2022/05/12 03:57:48;;;;;;;16.90;6.60;;;7.30;99.90;;;;;;5227751;28;20558;-67
2022/05/12 04:00:25;;;;;;;13.07;6.07;;;7.60;99.90;;;;;;5227622;28;20013;-67
2022/05/12 04:02:57;;;;;;;13.00;6.20;;;7.90;99.90;;;;;;5227600;28;20429;-76
2022/05/12 04:05:31;;;;;;;13.45;6.50;;;8.10;99.90;;;;;;5227696;28;20028;-67
2022/05/12 04:08:01;;;;;;;13.18;6.18;;;8.00;99.90;;;;;;5227758;28;20016;-70
2022/05/12 04:10:32;;;;;;;12.32;7.25;;;8.20;99.90;;;;;;5227441;28;20024;-77
2022/05/12 04:13:04;;;;;;;10.68;6.20;;;8.30;99.90;;;;;;5227549;28;20037;-67
2022/05/12 04:15:35;;;;;;;13.18;6.75;;;8.30;99.90;;;;;;5227611;28;20028;-68
2022/05/12 04:18:06;;;;;;;14.88;7.03;;;8.50;99.90;;;;;;5227476;28;20033;-68
2022/05/12 04:20:37;;;;;;;17.15;8.18;;;8.60;99.90;;;;;;5225793;28;20053;-67
2022/05/12 04:23:08;;;;;;;17.50;7.10;;;8.80;99.90;;;;;;5206976;28;20150;-68
2022/05/12 04:25:39;;;;;;;14.50;7.25;;;9.00;99.90;;;;;;5206827;28;20100;-67
2022/05/12 04:28:11;;;;;;;16.10;7.32;;;9.00;99.90;;;;;;5206713;28;20037;-67
2022/05/12 04:30:42;;;;;;;14.77;7.32;;;9.30;99.90;;;;;;5209820;28;20443;-67
2022/05/12 04:36:02;;;;;;;13.93;7.25;;;10.00;99.90;;;;;;5227599;28;20110;-77
2022/05/12 04:38:34;;;;;;;20.70;8.55;;;10.20;99.90;;;;;;5226052;28;20021;-67
2022/05/12 04:41:06;;;;;;;23.02;9.10;;;10.30;99.90;;;;;;5226950;28;20040;-72
2022/05/12 04:43:37;;;;;;;18.58;9.70;;;10.70;99.90;;;;;;5227234;28;20103;-75
2022/05/12 04:46:08;;;;;;;21.02;8.80;;;10.90;99.90;;;;;;5227045;28;20021;-68
2022/05/12 04:48:39;;;;;;;20.30;9.13;;;10.70;99.90;;;;;;5227069;28;20100;-68
2022/05/12 04:51:10;;;;;;;22.27;9.40;;;11.00;99.90;;;;;;5227145;28;20036;-68
2022/05/12 04:53:41;;;;;;;16.30;9.10;;;11.30;99.90;;;;;;5227334;28;20029;-67
2022/05/12 04:56:12;;;;;;;17.60;8.52;;;11.60;99.90;;;;;;5226992;28;20399;-67
2022/05/12 04:58:43;;;;;;;14.82;7.97;;;11.80;99.90;;;;;;5226986;28;20099;-67
2022/05/12 05:01:14;;;;;;;17.65;8.45;;;11.80;99.90;;;;;;5225154;28;20427;-67
2022/05/12 05:03:44;;;;;;;15.52;8.68;;;12.30;99.90;;;;;;5226996;28;20032;-67
2022/05/12 05:06:15;;;;;;;21.52;9.60;;;12.30;99.90;;;;;;5220751;28;20083;-67
2022/05/12 05:08:46;;;;;;;25.50;9.82;;;12.60;99.90;;;;;;5226353;28;20594;-67
2022/05/12 05:11:17;;;;;;;19.00;9.52;;;12.40;99.90;;;;;;5226942;28;20029;-67
2022/05/12 05:13:48;;;;;;;16.35;8.20;;;13.00;99.90;;;;;;5229290;28;20476;-67
2022/05/12 05:16:20;;;;;;;17.35;8.65;;;13.10;99.90;;;;;;5230894;28;20029;-68
2022/05/12 05:18:51;;;;;;;19.00;9.10;;;13.10;99.90;;;;;;5222450;28;20381;-78
2022/05/12 05:21:22;;;;;;;16.75;8.80;;;13.60;99.90;;;;;;5215625;28;20029;-77
2022/05/12 05:23:53;;;;;;;16.70;8.50;;;14.00;99.90;;;;;;5226697;28;20028;-77
2022/05/12 05:26:23;;;;;;;19.33;8.95;;;14.30;99.90;;;;;;5209779;28;20386;-77
2022/05/12 05:28:54;;;;;;;19.08;8.60;;;14.60;99.90;;;;;;5209781;28;20026;-75
2022/05/12 05:31:25;;;;;;;17.38;8.65;;;14.60;99.90;;;;;;5209683;28;20020;-78
2022/05/12 05:33:57;;;;;;;16.65;8.13;;;14.80;99.90;;;;;;5209812;28;20071;-75
2022/05/12 05:36:28;;;;;;;16.85;8.88;;;14.80;99.90;;;;;;5208790;28;20095;-69
2022/05/12 05:38:59;;;;;;;17.88;7.97;;;15.10;99.90;;;;;;5209222;28;20151;-68
2022/05/12 05:41:30;;;;;;;17.02;7.80;;;15.40;99.90;;;;;;5219355;28;21080;-70
2022/05/12 05:44:01;;;;;;;13.13;7.43;;;18.20;99.90;;;;;;5226535;28;20124;-76
2022/05/12 05:46:33;;;;;;;11.63;6.85;;;;;;;;;;5192808;28;20033;-68
2022/05/12 05:49:03;;;;;;;17.27;7.35;;;16.60;99.90;;;;;;5229800;28;20021;-76
2022/05/12 05:54:26;;;;;;;15.60;7.27;;;17.20;99.90;;;;;;5220952;28;20029;-78
2022/05/12 05:56:58;;;;;;;16.30;7.65;;;17.60;99.90;;;;;;5209477;28;20045;-78
2022/05/12 05:59:29;;;;;;;14.45;6.72;;;17.90;99.90;;;;;;5209841;28;20025;-79
2022/05/12 06:02:01;;;;;;;14.30;7.07;;;18.00;99.90;;;;;;5209349;28;20037;-79
2022/05/12 06:04:33;;;;;;;16.75;6.47;;;18.40;99.90;;;;;;5209680;28;20488;-78
2022/05/12 06:07:13;;;;;;;12.60;6.50;;;18.30;99.90;;;;;;5209226;28;20044;-79
2022/05/12 06:09:47;;;;;;;16.30;7.15;;;18.60;99.90;;;;;;5209222;28;20557;-79
2022/05/12 06:12:18;;;;;;;15.88;8.15;;;18.70;99.90;;;;;;5209261;28;20057;-77
2022/05/12 06:14:50;;;;;;;16.30;7.32;;;18.80;99.90;;;;;;5229089;28;20036;-73
2022/05/12 06:17:21;;;;;;;19.30;8.70;;;19.20;99.90;;;;;;5229420;28;20120;-78
2022/05/12 06:19:52;;;;;;;17.58;8.40;;;19.40;99.90;;;;;;5228962;28;20524;-70
2022/05/12 06:22:23;;;;;;;17.67;8.77;;;19.40;99.90;;;;;;5229595;28;20040;-70
2022/05/12 06:24:54;;;;;;;19.13;9.48;;;19.70;99.90;;;;;;5228136;28;20021;-73
2022/05/12 06:27:25;;;;;;;18.90;9.07;;;19.90;99.90;;;;;;5229746;28;20031;-69
2022/05/12 06:30:00;;;;;;;16.27;8.35;;;20.10;99.90;;;;;;5229909;28;20044;-76
2022/05/12 06:32:31;;;;;;;15.35;8.07;;;19.90;99.90;;;;;;5230411;28;20032;-75
2022/05/12 06:35:02;;;;;;;14.63;6.80;;;20.30;99.90;;;;;;5229638;28;20017;-75
2022/05/12 06:37:33;;;;;;;14.85;6.63;;;20.60;99.90;;;;;;5229603;28;20634;-77
2022/05/12 06:40:12;;;;;;;11.43;6.32;;;20.40;99.90;;;;;;5230107;28;20498;-76
2022/05/12 06:42:47;;;;;;;9.35;6.38;;;21.00;99.90;;;;;;5229574;28;20044;-76
2022/05/12 06:45:20;;;;;;;14.00;5.95;;;21.20;99.90;;;;;;5229985;28;20078;-76
2022/05/12 06:47:52;;;;;;;12.10;5.60;;;21.00;99.90;;;;;;5226965;28;20029;-76
2022/05/12 06:50:28;;;;;;;8.13;4.57;;;21.00;99.90;;;;;;5211312;28;20030;-76
2022/05/12 06:52:59;;;;;;;11.00;4.93;;;21.40;99.90;;;;;;5208703;28;20033;-76
2022/05/12 06:55:31;;;;;;;12.73;6.13;;;21.60;99.90;;;;;;5208407;28;20025;-74
2022/05/12 06:58:02;;;;;;;12.07;5.65;;;21.80;99.90;;;;;;5208122;28;20088;-77
2022/05/12 07:00:33;;;;;;;11.77;6.13;;;22.10;99.90;;;;;;5208182;28;20029;-76
2022/05/12 07:03:06;;;;;;;8.85;4.80;;;21.70;99.90;;;;;;5208273;28;20105;-73
2022/05/12 12:42:45;;;;;;;7.22;3.50;;;26.70;70.10;;;;;;5308318;27;20421;-74
2022/05/12 12:45:17;;;;;;;;;;;26.00;66.30;;;;;;5308740;27;20027;-74
2022/05/12 12:47:48;;;;;;;4.20;2.20;;;26.80;71.40;;;;;;5308225;27;19980;-78
2022/05/12 12:50:43;;;;;;;4.82;1.92;;;27.50;66.10;;;;;;5289646;28;20054;-75
2022/05/12 12:56:35;;;;;;;6.45;2.55;;;26.10;64.30;;;;;;5308374;27;20030;-73
2022/05/12 12:59:26;;;;;;;5.47;2.25;;;25.70;65.60;;;;;;5298371;27;20020;-76
2022/05/12 13:02:00;;;;;;;5.03;2.75;;;25.40;64.20;;;;;;5300143;27;20062;-75
2022/05/12 13:04:34;;;;;;;4.53;2.53;;;26.10;63.10;;;;;;5306311;27;20003;-75
2022/05/12 13:07:09;;;;;;;4.72;2.72;;;26.10;64.30;;;;;;5284780;28;20024;-78
2022/05/12 13:09:44;;;;;;;4.68;2.00;;;25.30;63.20;;;;;;5296099;27;20020;-75
2022/05/12 13:12:21;;;;;;;6.35;2.92;;;26.00;65.10;;;;;;5279505;28;20052;-76
2022/05/12 13:14:53;;;;;;;8.38;2.40;;;26.30;69.30;;;;;;5276486;28;20035;-79
2022/05/12 13:17:31;;;;;;;5.63;2.03;;;26.90;65.40;;;;;;5273154;28;20090;-79
2022/05/12 13:20:04;;;;;;;4.75;2.00;;;27.20;64.20;;;;;;5276901;28;20052;-78
2022/05/12 13:22:44;;;;;;;4.20;1.65;;;27.00;61.00;;;;;;5273953;28;20036;-76
2022/05/12 13:25:20;;;;;;;6.72;2.10;;;27.30;62.10;;;;;;5266232;28;20520;-76
2022/05/12 13:27:52;;;;;;;5.65;1.98;;;27.50;58.20;;;;;;5275876;28;20028;-74
2022/05/12 13:30:33;;;;;;;6.70;2.10;;;28.00;60.50;;;;;;5270074;28;20047;-75
2022/05/12 13:33:19;;;;;;;5.80;2.40;;;28.10;59.90;;;;;;5275420;28;20154;-77
2022/05/12 13:36:03;;;;;;;3.92;1.98;;;27.60;58.20;;;;;;5277618;28;20118;-77
2022/05/12 13:38:44;;;;;;;7.03;2.30;;;27.30;60.20;;;;;;5277630;28;20076;-77
2022/05/12 13:41:31;;;;;;;6.47;1.83;;;27.60;57.50;;;;;;5274979;28;20048;-77
2022/05/12 13:44:25;;;;;;;5.05;1.60;;;27.40;54.70;;;;;;5262785;28;20034;-75
2022/05/12 13:47:01;;;;;;;4.53;2.08;;;27.40;56.60;;;;;;5265508;28;20031;-75
2022/05/12 13:49:39;;;;;;;5.70;2.22;;;27.60;57.10;;;;;;5266546;28;20018;-77
2022/05/12 13:52:13;;;;;;;4.20;1.92;;;27.70;57.20;;;;;;5265251;28;20408;-78
2022/05/12 13:54:49;;;;;;;4.13;2.10;;;27.30;57.00;;;;;;5266740;28;20042;-77
2022/05/12 13:57:40;;;;;;;3.35;2.15;;;27.80;57.60;;;;;;5263599;28;20093;-78
2022/05/12 14:00:10;;;;;;;5.13;2.38;;;27.90;56.70;;;;;;5264790;28;20024;-78
2022/05/12 14:02:50;;;;;;;4.40;1.70;;;27.60;58.90;;;;;;5267504;28;20039;-78
2022/05/12 14:05:29;;;;;;;5.60;2.10;;;27.90;58.20;;;;;;5267285;28;20028;-78
2022/05/12 14:08:05;;;;;;;4.93;1.67;;;27.50;55.60;;;;;;5267756;28;20118;-77
2022/05/12 14:10:41;;;;;;;11.75;2.38;;;27.10;56.90;;;;;;5267776;28;20119;-79
2022/05/12 14:19:20;;;;;;;3.13;1.80;;;27.00;57.50;;;;;;5266462;28;20027;-80
2022/05/12 14:21:58;;;;;;;3.42;1.75;;;27.40;56.80;;;;;;5265810;28;20043;-80
2022/05/12 14:24:31;;;;;;;3.47;1.55;;;26.70;56.50;;;;;;5266399;28;20055;-80
2022/05/12 14:27:02;;;;;;;4.72;1.98;;;27.00;56.00;;;;;;5265141;28;20024;-78
2022/05/12 14:29:33;;;;;;;5.53;1.83;;;27.60;56.50;;;;;;5259036;28;20032;-79
2022/05/12 14:32:05;;;;;;;6.20;1.85;;;26.90;55.00;;;;;;5263408;28;20116;-80
2022/05/12 14:34:36;;;;;;;3.50;1.85;;;26.70;57.60;;;;;;5265033;28;20115;-80
2022/05/12 14:37:07;;;;;;;3.53;1.60;;;27.30;55.50;;;;;;5263192;28;20047;-76
2022/05/12 14:39:38;;;;;;;2.65;1.48;;;27.10;55.00;;;;;;5259840;28;20016;-76
2022/05/12 14:42:09;;;;;;;2.50;1.92;;;26.80;54.80;;;;;;5261252;28;20032;-76
2022/05/12 14:44:40;;;;;;;4.85;1.60;;;26.90;57.50;;;;;;5263701;28;20030;-80
2022/05/12 14:47:17;;;;;;;1.80;1.30;;;27.30;55.80;;;;;;5261288;28;20024;-80
2022/05/12 14:49:49;;;;;;;8.40;1.85;;;27.10;55.70;;;;;;5263835;28;20032;-80
2022/05/12 14:52:24;;;;;;;5.82;1.60;;;27.20;55.40;;;;;;5263985;28;20044;-79
2022/05/12 14:54:56;;;;;;;4.90;1.42;;;27.40;55.50;;;;;;5264566;28;20038;-79
2022/05/12 14:57:27;;;;;;;3.55;1.50;;;27.10;55.40;;;;;;5258476;28;20038;-79
2022/05/12 15:00:01;;;;;;;2.55;1.50;;;26.50;53.80;;;;;;5264623;28;20020;-78
2022/05/12 15:02:33;;;;;;;6.47;1.40;;;26.60;55.80;;;;;;5263913;28;20032;-77
2022/05/12 15:05:10;;;;;;;3.45;1.67;;;26.80;54.90;;;;;;5257274;28;20829;-78
2022/05/12 15:07:41;;;;;;;5.80;1.40;;;25.70;57.10;;;;;;5258229;28;20036;-79
2022/05/12 15:10:13;;;;;;;3.60;1.52;;;26.70;56.20;;;;;;5260025;28;20028;-78
2022/05/12 15:12:44;;;;;;;2.55;1.35;;;26.50;58.00;;;;;;5262436;28;20032;-78
2022/05/12 15:15:16;;;;;;;3.70;1.33;;;26.10;55.50;;;;;;5262813;28;20599;-76
2022/05/12 15:17:49;;;;;;;3.63;1.42;;;25.90;56.30;;;;;;5263538;28;20145;-79
2022/05/12 15:20:22;;;;;;;4.18;1.52;;;26.10;58.00;;;;;;5255829;28;20422;-79
2022/05/12 15:22:53;;;;;;;3.08;1.38;;;26.10;58.80;;;;;;5261293;28;20020;-78
2022/05/12 15:25:24;;;;;;;5.28;1.65;;;25.80;60.00;;;;;;5260559;28;20855;-78
2022/05/12 15:27:56;;;;;;;3.58;1.60;;;25.60;57.90;;;;;;5259360;28;20104;-78
2022/05/12 15:30:27;;;;;;;4.20;1.42;;;25.30;60.50;;;;;;5264305;28;20078;-77
2022/05/12 15:32:58;;;;;;;3.28;1.42;;;25.80;58.50;;;;;;5263213;28;20028;-78
2022/05/12 15:35:29;;;;;;;6.80;1.60;;;24.90;61.40;;;;;;5259586;28;20024;-78
2022/05/12 15:37:59;;;;;;;3.92;1.77;;;24.10;64.90;;;;;;5267245;28;20028;-78
2022/05/12 15:40:30;;;;;;;3.63;1.45;;;23.50;66.60;;;;;;5261990;28;20118;-78
2022/05/12 15:43:01;;;;;;;2.42;1.27;;;23.40;71.10;;;;;;5259901;28;20043;-78
2022/05/12 15:45:32;;;;;;;3.92;1.40;;;23.50;65.70;;;;;;5259381;28;20678;-76
2022/05/12 15:48:08;;;;;;;4.15;1.70;;;24.00;61.60;;;;;;5264009;28;20483;-78
2022/05/12 15:50:39;;;;;;;4.72;1.25;;;23.60;63.90;;;;;;5259374;28;20034;-76
2022/05/12 15:53:10;;;;;;;5.22;1.30;;;23.40;64.90;;;;;;5262138;28;20455;-78
2022/05/12 15:55:42;;;;;;;3.67;1.60;;;23.40;63.50;;;;;;5261953;28;20043;-77
2022/05/12 15:58:14;;;;;;;5.38;1.50;;;23.00;70.50;;;;;;5263113;28;20039;-76
2022/05/12 16:00:45;;;;;;;3.08;1.55;;;22.80;72.40;;;;;;5257960;28;20114;-75
2022/05/12 16:03:16;;;;;;;2.78;1.27;;;21.90;78.60;;;;;;5263534;28;20059;-77
2022/05/12 16:05:47;;;;;;;3.65;1.60;;;22.10;74.00;;;;;;5263026;28;20615;-78
2022/05/12 16:08:18;;;;;;;6.18;1.80;;;22.30;72.00;;;;;;5259823;28;20039;-78
2022/05/12 16:10:55;;;;;;;7.35;1.50;;;22.20;72.80;;;;;;5262852;28;20052;-77
2022/05/12 16:13:29;;;;;;;3.45;1.70;;;21.80;74.20;;;;;;5258892;28;20054;-77
2022/05/12 16:16:01;;;;;;;4.70;1.67;;;21.20;76.10;;;;;;5260986;28;20032;-78
2022/05/12 16:18:32;;;;;;;2.88;1.65;;;21.00;78.40;;;;;;5260556;28;20096;-78
2022/05/12 16:21:03;;;;;;;4.63;1.40;;;20.80;81.10;;;;;;5263080;28;20522;-76
2022/05/12 16:23:34;;;;;;;3.30;1.33;;;21.30;82.50;;;;;;5260865;28;20090;-76
2022/05/12 16:26:09;;;;;;;3.00;1.15;;;21.00;82.40;;;;;;5259642;28;20055;-77
2022/05/12 16:28:41;;;;;;;3.63;1.48;;;20.90;88.10;;;;;;5261287;28;20140;-78
2022/05/12 16:31:14;;;;;;;2.65;1.55;;;20.00;91.40;;;;;;5260877;28;20387;-80
2022/05/12 16:33:46;;;;;;;5.97;1.50;;;20.10;94.10;;;;;;5265402;28;20040;-78
2022/05/12 16:36:19;;;;;;;2.15;1.45;;;20.20;94.00;;;;;;5262620;28;20052;-76
2022/05/12 16:38:50;;;;;;;3.20;1.60;;;20.00;91.50;;;;;;5254679;28;20513;-78
2022/05/12 16:41:21;;;;;;;2.78;1.75;;;19.50;94.00;;;;;;5257865;28;20064;-78
2022/05/12 16:43:52;;;;;;;3.80;1.48;;;19.50;96.20;;;;;;5262387;28;20070;-77
2022/05/12 16:46:23;;;;;;;1.80;1.30;;;19.50;97.90;;;;;;5263261;28;20043;-77
2022/05/12 16:48:54;;;;;;;3.15;1.58;;;18.90;99.90;;;;;;5246210;28;20054;-78
2022/05/12 16:51:25;;;;;;;4.45;1.65;;;18.50;99.90;;;;;;5263287;28;20036;-78
2022/05/12 16:53:56;;;;;;;3.38;1.52;;;18.30;99.90;;;;;;5265045;28;20028;-78
2022/05/12 16:56:28;;;;;;;5.72;1.63;;;18.40;99.90;;;;;;5264836;28;20032;-79
2022/05/12 16:58:58;;;;;;;2.20;1.77;;;18.30;99.90;;;;;;5265291;28;20028;-83
2022/05/12 17:01:29;;;;;;;4.20;2.15;;;18.30;99.90;;;;;;5264479;28;20026;-81
2022/05/12 17:04:00;;;;;;;7.05;1.75;;;18.20;99.90;;;;;;5258970;28;20048;-79
2022/05/12 17:06:31;;;;;;;3.30;1.50;;;18.30;99.90;;;;;;5264160;28;20048;-77
2022/05/12 17:09:02;;;;;;;5.93;1.77;;;18.00;99.90;;;;;;5259165;28;20135;-77
2022/05/12 17:11:34;;;;;;;5.22;2.63;;;18.00;99.90;;;;;;5260556;28;20396;-77
2022/05/12 17:14:10;;;;;;;3.20;1.77;;;17.80;99.90;;;;;;5249337;28;20048;-77
2022/05/12 17:16:42;;;;;;;2.50;1.50;;;17.80;99.90;;;;;;5259027;28;20036;-82
2022/05/12 17:19:13;;;;;;;2.85;1.13;;;17.60;99.90;;;;;;5265188;28;20028;-79
2022/05/12 17:21:44;;;;;;;3.60;1.80;;;17.20;99.90;;;;;;5266703;28;20031;-81
2022/05/12 17:24:15;;;;;;;10.15;4.95;;;;;;;;;;5265465;28;20027;-82
2022/05/12 17:26:46;;;;;;;3.67;2.60;;;16.70;99.90;;;;;;5264731;28;20043;-81
2022/05/12 17:29:18;;;;;;;2.88;1.65;;;16.50;99.90;;;;;;5265282;28;20482;-80
2022/05/12 17:31:48;;;;;;;6.03;2.80;;;16.50;99.90;;;;;;5259361;28;20062;-74
2022/05/12 17:34:19;;;;;;;3.22;2.30;;;16.20;99.90;;;;;;5266684;28;20036;-79
2022/05/12 17:36:50;;;;;;;7.40;2.50;;;16.40;99.90;;;;;;5263979;28;20029;-77
2022/05/12 17:39:21;;;;;;;3.53;2.20;;;16.60;99.90;;;;;;5262341;28;20059;-77
2022/05/12 17:41:52;;;;;;;5.30;2.80;;;16.70;99.90;;;;;;5264570;28;20048;-78
2022/05/12 17:44:22;;;;;;;6.22;2.58;;;16.10;99.90;;;;;;5259050;28;20035;-78
2022/05/12 17:46:54;;;;;;;3.67;2.35;;;16.10;99.90;;;;;;5265412;28;20020;-77
2022/05/12 17:49:25;;;;;;;4.72;2.63;;;16.00;99.90;;;;;;5267384;28;20581;-78
2022/05/12 17:51:56;;;;;;;5.43;2.55;;;15.50;99.90;;;;;;5244227;28;20060;-77
2022/05/12 17:54:28;;;;;;;4.20;2.33;;;15.90;99.90;;;;;;5264175;28;20024;-78
2022/05/12 17:56:59;;;;;;;5.85;2.85;;;15.60;99.90;;;;;;5262493;28;20024;-79
2022/05/12 17:59:30;;;;;;;4.28;2.80;;;15.70;99.90;;;;;;5264457;28;20017;-77
2022/05/12 18:02:02;;;;;;;4.15;2.72;;;15.60;99.90;;;;;;5263191;28;20035;-77
2022/05/12 18:04:37;;;;;;;6.00;2.40;;;15.50;99.90;;;;;;5259771;28;20050;-77
2022/05/12 18:07:09;;;;;;;4.82;2.40;;;15.20;99.90;;;;;;5265009;28;20016;-77
2022/05/12 18:09:40;;;;;;;5.00;2.50;;;15.00;99.90;;;;;;5263187;28;20047;-81
2022/05/12 18:12:11;;;;;;;5.28;2.42;;;14.70;99.90;;;;;;5265101;28;20036;-77
2022/05/12 18:14:42;;;;;;;5.68;2.72;;;15.10;99.90;;;;;;5263291;28;20032;-79
2022/05/12 18:17:13;;;;;;;7.68;3.20;;;14.90;99.90;;;;;;5260562;28;20060;-79
2022/05/12 18:19:44;;;;;;;4.75;2.60;;;14.70;99.90;;;;;;5218506;28;20040;-79
2022/05/12 18:22:16;;;;;;;6.35;3.13;;;14.70;99.90;;;;;;5245864;28;20055;-80
2022/05/12 18:24:47;;;;;;;5.60;3.13;;;14.40;99.90;;;;;;5245478;28;20036;-79
2022/05/12 18:27:17;;;;;;;6.80;3.05;;;14.30;99.90;;;;;;5249748;28;20036;-79
2022/05/12 18:29:48;;;;;;;18.40;3.47;;;14.30;99.90;;;;;;5234143;28;20032;-79
2022/05/12 18:32:20;;;;;;;8.00;3.97;;;14.60;99.90;;;;;;5237240;28;20068;-79
2022/05/12 18:34:50;;;;;;;7.75;4.05;;;14.30;99.90;;;;;;5232610;28;20043;-79
2022/05/12 18:37:24;;;;;;;7.43;4.20;;;14.20;99.90;;;;;;5242277;28;20029;-78
2022/05/12 18:39:56;;;;;;;8.55;4.10;;;14.50;99.90;;;;;;5246392;28;20032;-79
2022/05/12 18:42:27;;;;;;;7.45;3.70;;;14.50;99.90;;;;;;5244238;28;20049;-79
2022/05/12 18:44:58;;;;;;;9.27;3.35;;;14.30;99.90;;;;;;5239564;28;20029;-78
2022/05/12 18:47:32;;;;;;;10.93;4.15;;;14.20;99.90;;;;;;5250448;28;20040;-78
2022/05/12 18:50:12;;;;;;;12.35;4.07;;;14.10;99.90;;;;;;5239014;28;20055;-82
2022/05/12 18:52:49;;;;;;;8.05;4.38;;;13.60;99.90;;;;;;5249829;28;20131;-80
2022/05/12 18:55:20;;;;;;;12.13;4.28;;;13.90;99.90;;;;;;5239474;28;20039;-78
2022/05/12 18:57:51;;;;;;;9.02;4.38;;;13.80;99.90;;;;;;5246903;28;20025;-80
2022/05/12 19:00:26;;;;;;;8.35;3.70;;;14.00;99.90;;;;;;5247532;28;20045;-79
2022/05/12 19:03:00;;;;;;;11.50;4.55;;;13.70;99.90;;;;;;5240757;28;20058;-78
2022/05/12 19:05:32;;;;;;;8.98;4.50;;;13.10;99.90;;;;;;5211967;28;20143;-78